This is the latest recevied weather packets stored in our database for station/object DJ8HS-1. If no packets are shown the sender has not sent any weather packets the latest 1 day(s).
| Time | Temp. | Humidity | Pressure | Rain* | Wind** | Luminosity | Snow |
|---|---|---|---|---|---|---|---|
| 1777977360 | 24.44° C | 37% | 0 hPa | 0 mm | 0 m/s | - | - |
| 1777977060 | 25° C | 38% | 0 hPa | 0 mm | 0.89 m/s, 236° | - | - |
| 1777976760 | 24.44° C | 38% | 0 hPa | 0 mm | 0 m/s | - | - |
| 1777976460 | 24.44° C | 38% | 0 hPa | 0 mm | 0 m/s | - | - |
| 1777976159 | 24.44° C | 39% | 0 hPa | 0 mm | 0.45 m/s, 232° | - | - |
| 1777975859 | 23.89° C | 40% | 0 hPa | 0 mm | 0.45 m/s, 209° | - | - |
| 1777975559 | 23.89° C | 39% | 0 hPa | 0 mm | 0.45 m/s, 206° | - | - |
| 1777975258 | 23.89° C | 39% | 0 hPa | 0 mm | 0 m/s | - | - |
| 1777974958 | 23.89° C | 39% | 0 hPa | 0 mm | 0 m/s | - | - |
| 1777974658 | 23.89° C | 38% | 0 hPa | 0 mm | 0.89 m/s, 229° | - | - |
| 1777974358 | 24.44° C | 37% | 0 hPa | 0 mm | 0 m/s | - | - |
| 1777974057 | 24.44° C | 37% | 0 hPa | 0 mm | 0.45 m/s, 198° | - | - |
| 1777973757 | 25° C | 38% | 0 hPa | 0 mm | 0.45 m/s, 206° | - | - |
| 1777973457 | 24.44° C | 38% | 0 hPa | 0 mm | 0.89 m/s, 189° | - | - |
| 1777973156 | 24.44° C | 40% | 0 hPa | 0 mm | 1.34 m/s, 212° | - | - |
| 1777972856 | 25° C | 39% | 0 hPa | 0 mm | 0 m/s | - | - |
| 1777972556 | 25° C | 39% | 0 hPa | 0 mm | 0.45 m/s, 126° | - | - |
| 1777972255 | 25° C | 39% | 0 hPa | 0 mm | 1.34 m/s, 213° | - | - |
| 1777971955 | 25° C | 41% | 0 hPa | 0 mm | 0 m/s | - | - |
| 1777971655 | 24.44° C | 41% | 0 hPa | 0 mm | 0.89 m/s, 151° | - | - |
| 1777971356 | 23.89° C | 42% | 0 hPa | 0 mm | 0.89 m/s, 167° | - | - |
| 1777971054 | 23.89° C | 43% | 0 hPa | 0 mm | 0.89 m/s, 182° | - | - |
| 1777970754 | 23.89° C | 43% | 0 hPa | 0 mm | 0 m/s | - | - |
| 1777970454 | 23.89° C | 45% | 0 hPa | 0 mm | 0 m/s | - | - |
| 1777970153 | 23.33° C | 44% | 0 hPa | 0 mm | 0 m/s | - | - |
* Rain latest hour (hover to see other rain measurements)
** Current wind speed in m/s (hover to see current wind gust speed)